sensor_id;sensor_type;location;lat;lon;timestamp;temperature;humidity
75961;SHT30;64644;48.914;2.254;2023-04-03T00:00:40;10.37;64.79
75961;SHT30;64644;48.914;2.254;2023-04-03T00:03:06;10.33;64.74
75961;SHT30;64644;48.914;2.254;2023-04-03T00:05:31;10.30;64.76
75961;SHT30;64644;48.914;2.254;2023-04-03T00:07:56;10.29;64.72
75961;SHT30;64644;48.914;2.254;2023-04-03T00:10:22;10.29;64.77
75961;SHT30;64644;48.914;2.254;2023-04-03T00:12:47;10.29;64.86
75961;SHT30;64644;48.914;2.254;2023-04-03T00:15:13;10.29;64.77
75961;SHT30;64644;48.914;2.254;2023-04-03T00:17:38;10.26;64.92
75961;SHT30;64644;48.914;2.254;2023-04-03T00:20:04;10.29;64.92
75961;SHT30;64644;48.914;2.254;2023-04-03T00:22:30;10.29;64.93
75961;SHT30;64644;48.914;2.254;2023-04-03T00:24:55;10.29;65.02
75961;SHT30;64644;48.914;2.254;2023-04-03T00:27:21;10.32;65.06
75961;SHT30;64644;48.914;2.254;2023-04-03T00:29:46;10.30;65.12
75961;SHT30;64644;48.914;2.254;2023-04-03T00:32:12;10.32;65.06
75961;SHT30;64644;48.914;2.254;2023-04-03T00:34:38;10.34;65.11
75961;SHT30;64644;48.914;2.254;2023-04-03T00:37:03;10.33;65.02
75961;SHT30;64644;48.914;2.254;2023-04-03T00:39:28;10.36;64.93
75961;SHT30;64644;48.914;2.254;2023-04-03T00:41:54;10.34;65.03
75961;SHT30;64644;48.914;2.254;2023-04-03T00:46:53;10.38;64.93
75961;SHT30;64644;48.914;2.254;2023-04-03T00:49:19;10.40;64.90
75961;SHT30;64644;48.914;2.254;2023-04-03T00:51:45;10.40;64.91
75961;SHT30;64644;48.914;2.254;2023-04-03T00:54:11;10.41;64.95
75961;SHT30;64644;48.914;2.254;2023-04-03T00:56:37;10.37;64.81
75961;SHT30;64644;48.914;2.254;2023-04-03T00:59:10;10.40;64.88
75961;SHT30;64644;48.914;2.254;2023-04-03T01:01:37;10.38;64.95
75961;SHT30;64644;48.914;2.254;2023-04-03T01:04:03;10.34;65.01
75961;SHT30;64644;48.914;2.254;2023-04-03T01:06:33;10.32;64.83
75961;SHT30;64644;48.914;2.254;2023-04-03T01:09:00;10.33;65.09
75961;SHT30;64644;48.914;2.254;2023-04-03T01:11:26;10.33;64.97
75961;SHT30;64644;48.914;2.254;2023-04-03T01:13:52;10.30;64.88
75961;SHT30;64644;48.914;2.254;2023-04-03T01:16:18;10.32;65.04
75961;SHT30;64644;48.914;2.254;2023-04-03T01:18:44;10.33;64.99
75961;SHT30;64644;48.914;2.254;2023-04-03T01:26:25;10.24;65.17
75961;SHT30;64644;48.914;2.254;2023-04-03T01:28:53;10.20;65.10
75961;SHT30;64644;48.914;2.254;2023-04-03T01:31:40;10.24;65.24
75961;SHT30;64644;48.914;2.254;2023-04-03T01:34:06;10.20;65.22
75961;SHT30;64644;48.914;2.254;2023-04-03T01:36:32;10.18;65.18
75961;SHT30;64644;48.914;2.254;2023-04-03T01:38:58;10.16;65.12
75961;SHT30;64644;48.914;2.254;2023-04-03T01:41:25;10.12;65.23
75961;SHT30;64644;48.914;2.254;2023-04-03T01:43:51;10.13;65.31
75961;SHT30;64644;48.914;2.254;2023-04-03T01:46:16;10.10;65.31
75961;SHT30;64644;48.914;2.254;2023-04-03T01:48:42;10.10;65.43
75961;SHT30;64644;48.914;2.254;2023-04-03T01:51:07;10.12;65.43
75961;SHT30;64644;48.914;2.254;2023-04-03T01:53:33;10.10;65.37
75961;SHT30;64644;48.914;2.254;2023-04-03T01:55:58;10.09;65.24
75961;SHT30;64644;48.914;2.254;2023-04-03T01:58:24;10.07;65.29
75961;SHT30;64644;48.914;2.254;2023-04-03T02:00:49;10.07;65.40
75961;SHT30;64644;48.914;2.254;2023-04-03T02:03:15;10.07;65.51
75961;SHT30;64644;48.914;2.254;2023-04-03T02:05:41;10.10;65.48
75961;SHT30;64644;48.914;2.254;2023-04-03T02:08:06;10.07;65.27
75961;SHT30;64644;48.914;2.254;2023-04-03T02:10:32;10.05;65.36
75961;SHT30;64644;48.914;2.254;2023-04-03T02:12:57;10.02;65.46
75961;SHT30;64644;48.914;2.254;2023-04-03T02:15:22;10.02;65.52
75961;SHT30;64644;48.914;2.254;2023-04-03T02:17:47;10.03;65.58
75961;SHT30;64644;48.914;2.254;2023-04-03T02:20:13;10.03;65.51
75961;SHT30;64644;48.914;2.254;2023-04-03T02:22:38;10.02;65.47
75961;SHT30;64644;48.914;2.254;2023-04-03T02:25:04;9.99;65.62
75961;SHT30;64644;48.914;2.254;2023-04-03T02:27:30;10.02;65.64
75961;SHT30;64644;48.914;2.254;2023-04-03T02:29:57;10.00;65.68
75961;SHT30;64644;48.914;2.254;2023-04-03T02:32:22;10.00;65.62
75961;SHT30;64644;48.914;2.254;2023-04-03T02:34:48;9.99;65.56
75961;SHT30;64644;48.914;2.254;2023-04-03T02:37:13;9.96;65.43
75961;SHT30;64644;48.914;2.254;2023-04-03T02:39:38;9.93;65.37
75961;SHT30;64644;48.914;2.254;2023-04-03T02:42:04;9.90;65.33
75961;SHT30;64644;48.914;2.254;2023-04-03T02:44:29;9.85;65.34
75961;SHT30;64644;48.914;2.254;2023-04-03T02:46:55;9.86;65.34
75961;SHT30;64644;48.914;2.254;2023-04-03T02:49:20;9.83;65.27
75961;SHT30;64644;48.914;2.254;2023-04-03T02:51:45;9.83;65.24
75961;SHT30;64644;48.914;2.254;2023-04-03T02:54:11;9.79;65.31
75961;SHT30;64644;48.914;2.254;2023-04-03T02:56:36;9.79;65.34
75961;SHT30;64644;48.914;2.254;2023-04-03T02:59:02;9.78;65.32
75961;SHT30;64644;48.914;2.254;2023-04-03T03:01:27;9.79;65.36
75961;SHT30;64644;48.914;2.254;2023-04-03T03:03:56;9.81;65.21
75961;SHT30;64644;48.914;2.254;2023-04-03T03:06:22;9.83;65.15
75961;SHT30;64644;48.914;2.254;2023-04-03T03:08:47;9.83;64.93
75961;SHT30;64644;48.914;2.254;2023-04-03T03:11:13;9.83;64.92
75961;SHT30;64644;48.914;2.254;2023-04-03T03:13:38;9.83;64.99
75961;SHT30;64644;48.914;2.254;2023-04-03T03:16:04;9.82;64.78
75961;SHT30;64644;48.914;2.254;2023-04-03T03:18:30;9.85;64.80
75961;SHT30;64644;48.914;2.254;2023-04-03T03:20:58;9.85;64.69
75961;SHT30;64644;48.914;2.254;2023-04-03T03:23:25;9.83;64.65
75961;SHT30;64644;48.914;2.254;2023-04-03T03:26:20;9.79;64.24
75961;SHT30;64644;48.914;2.254;2023-04-03T03:28:46;9.79;64.39
75961;SHT30;64644;48.914;2.254;2023-04-03T03:31:11;9.79;64.46
75961;SHT30;64644;48.914;2.254;2023-04-03T03:33:37;9.81;64.24
75961;SHT30;64644;48.914;2.254;2023-04-03T03:36:02;9.77;64.35
75961;SHT30;64644;48.914;2.254;2023-04-03T03:38:28;9.78;64.23
75961;SHT30;64644;48.914;2.254;2023-04-03T03:40:53;9.77;64.14
75961;SHT30;64644;48.914;2.254;2023-04-03T03:43:19;9.75;64.05
75961;SHT30;64644;48.914;2.254;2023-04-03T03:45:50;9.75;63.83
75961;SHT30;64644;48.914;2.254;2023-04-03T03:48:15;9.75;63.90
75961;SHT30;64644;48.914;2.254;2023-04-03T03:50:41;9.74;63.66
75961;SHT30;64644;48.914;2.254;2023-04-03T03:53:06;9.74;63.72
75961;SHT30;64644;48.914;2.254;2023-04-03T03:55:31;9.72;63.74
75961;SHT30;64644;48.914;2.254;2023-04-03T03:57:57;9.71;63.73
75961;SHT30;64644;48.914;2.254;2023-04-03T04:00:22;9.71;63.60
75961;SHT30;64644;48.914;2.254;2023-04-03T04:02:47;9.70;63.67
75961;SHT30;64644;48.914;2.254;2023-04-03T04:05:13;9.71;63.65
75961;SHT30;64644;48.914;2.254;2023-04-03T04:07:38;9.70;63.63
75961;SHT30;64644;48.914;2.254;2023-04-03T04:10:04;9.67;63.46
75961;SHT30;64644;48.914;2.254;2023-04-03T04:12:29;9.67;63.47
75961;SHT30;64644;48.914;2.254;2023-04-03T04:14:55;9.67;63.42
75961;SHT30;64644;48.914;2.254;2023-04-03T04:17:21;9.65;63.48
75961;SHT30;64644;48.914;2.254;2023-04-03T04:19:46;9.65;63.45
75961;SHT30;64644;48.914;2.254;2023-04-03T04:22:11;9.65;63.09
75961;SHT30;64644;48.914;2.254;2023-04-03T04:24:37;9.64;63.34
75961;SHT30;64644;48.914;2.254;2023-04-03T04:27:02;9.64;62.97
75961;SHT30;64644;48.914;2.254;2023-04-03T04:29:27;9.59;63.08
75961;SHT30;64644;48.914;2.254;2023-04-03T04:31:53;9.64;63.13
75961;SHT30;64644;48.914;2.254;2023-04-03T04:34:18;9.65;63.23
75961;SHT30;64644;48.914;2.254;2023-04-03T04:36:43;9.64;63.22
75961;SHT30;64644;48.914;2.254;2023-04-03T04:39:09;9.61;62.95
75961;SHT30;64644;48.914;2.254;2023-04-03T04:41:34;9.58;62.86
75961;SHT30;64644;48.914;2.254;2023-04-03T04:44:00;9.58;62.85
75961;SHT30;64644;48.914;2.254;2023-04-03T04:46:26;9.58;62.63
75961;SHT30;64644;48.914;2.254;2023-04-03T04:48:51;9.58;62.52
75961;SHT30;64644;48.914;2.254;2023-04-03T04:51:16;9.57;62.46
75961;SHT30;64644;48.914;2.254;2023-04-03T04:53:42;9.55;62.52
75961;SHT30;64644;48.914;2.254;2023-04-03T04:56:08;9.52;62.56
75961;SHT30;64644;48.914;2.254;2023-04-03T04:58:34;9.52;62.65
75961;SHT30;64644;48.914;2.254;2023-04-03T05:01:07;9.54;62.09
75961;SHT30;64644;48.914;2.254;2023-04-03T05:03:33;9.52;62.52
75961;SHT30;64644;48.914;2.254;2023-04-03T05:05:59;9.47;61.80
75961;SHT30;64644;48.914;2.254;2023-04-03T05:08:25;9.43;61.95
75961;SHT30;64644;48.914;2.254;2023-04-03T05:10:50;9.41;61.89
75961;SHT30;64644;48.914;2.254;2023-04-03T05:13:16;9.43;61.78
75961;SHT30;64644;48.914;2.254;2023-04-03T05:15:41;9.43;61.60
75961;SHT30;64644;48.914;2.254;2023-04-03T05:18:07;9.44;61.95
75961;SHT30;64644;48.914;2.254;2023-04-03T05:20:33;9.43;61.65
75961;SHT30;64644;48.914;2.254;2023-04-03T05:22:58;9.41;61.42
75961;SHT30;64644;48.914;2.254;2023-04-03T05:25:24;9.40;61.51
75961;SHT30;64644;48.914;2.254;2023-04-03T05:27:50;9.37;61.13
75961;SHT30;64644;48.914;2.254;2023-04-03T05:30:16;9.37;61.07
75961;SHT30;64644;48.914;2.254;2023-04-03T05:32:42;9.37;61.13
75961;SHT30;64644;48.914;2.254;2023-04-03T05:35:08;9.36;60.85
75961;SHT30;64644;48.914;2.254;2023-04-03T05:37:34;9.37;61.01
75961;SHT30;64644;48.914;2.254;2023-04-03T05:39:59;9.37;60.83
75961;SHT30;64644;48.914;2.254;2023-04-03T05:42:25;9.38;60.61
75961;SHT30;64644;48.914;2.254;2023-04-03T05:44:50;9.40;60.37
75961;SHT30;64644;48.914;2.254;2023-04-03T05:47:17;9.40;60.50
75961;SHT30;64644;48.914;2.254;2023-04-03T05:49:42;9.41;60.51
75961;SHT30;64644;48.914;2.254;2023-04-03T05:52:26;9.40;60.50
75961;SHT30;64644;48.914;2.254;2023-04-03T05:54:52;9.40;59.98
75961;SHT30;64644;48.914;2.254;2023-04-03T05:57:18;9.40;60.26
75961;SHT30;64644;48.914;2.254;2023-04-03T05:59:44;9.36;60.44
75961;SHT30;64644;48.914;2.254;2023-04-03T06:02:12;9.37;60.42
75961;SHT30;64644;48.914;2.254;2023-04-03T06:04:38;9.40;60.13
75961;SHT30;64644;48.914;2.254;2023-04-03T06:07:04;9.37;59.98
75961;SHT30;64644;48.914;2.254;2023-04-03T06:09:30;9.38;60.19
75961;SHT30;64644;48.914;2.254;2023-04-03T06:11:56;9.37;59.88
75961;SHT30;64644;48.914;2.254;2023-04-03T06:14:24;9.36;59.93
75961;SHT30;64644;48.914;2.254;2023-04-03T06:16:49;9.38;60.19
75961;SHT30;64644;48.914;2.254;2023-04-03T06:19:14;9.37;59.70
75961;SHT30;64644;48.914;2.254;2023-04-03T06:21:40;9.34;59.80
75961;SHT30;64644;48.914;2.254;2023-04-03T06:24:06;9.37;59.68
75961;SHT30;64644;48.914;2.254;2023-04-03T06:26:33;9.38;59.53
75961;SHT30;64644;48.914;2.254;2023-04-03T06:28:59;9.37;59.67
75961;SHT30;64644;48.914;2.254;2023-04-03T06:31:24;9.37;59.65
75961;SHT30;64644;48.914;2.254;2023-04-03T06:33:50;9.38;59.37
75961;SHT30;64644;48.914;2.254;2023-04-03T06:36:18;9.41;59.36
75961;SHT30;64644;48.914;2.254;2023-04-03T06:38:45;9.43;59.04
75961;SHT30;64644;48.914;2.254;2023-04-03T06:41:10;9.41;59.07
75961;SHT30;64644;48.914;2.254;2023-04-03T06:43:36;9.45;59.18
75961;SHT30;64644;48.914;2.254;2023-04-03T06:46:01;9.48;59.36
75961;SHT30;64644;48.914;2.254;2023-04-03T06:48:27;9.48;58.83
75961;SHT30;64644;48.914;2.254;2023-04-03T06:50:53;9.51;59.20
75961;SHT30;64644;48.914;2.254;2023-04-03T06:53:18;9.51;58.92
75961;SHT30;64644;48.914;2.254;2023-04-03T06:55:44;9.50;58.83
75961;SHT30;64644;48.914;2.254;2023-04-03T06:58:09;9.52;59.30
75961;SHT30;64644;48.914;2.254;2023-04-03T07:00:34;9.57;58.56
75961;SHT30;64644;48.914;2.254;2023-04-03T07:03:00;9.57;58.49
75961;SHT30;64644;48.914;2.254;2023-04-03T07:05:25;9.61;58.95
75961;SHT30;64644;48.914;2.254;2023-04-03T07:07:52;9.61;58.82
75961;SHT30;64644;48.914;2.254;2023-04-03T07:10:18;9.67;58.91
75961;SHT30;64644;48.914;2.254;2023-04-03T07:12:44;9.70;58.81
75961;SHT30;64644;48.914;2.254;2023-04-03T07:15:10;9.70;58.49
75961;SHT30;64644;48.914;2.254;2023-04-03T07:17:36;9.77;58.33
75961;SHT30;64644;48.914;2.254;2023-04-03T07:20:02;9.82;58.45
75961;SHT30;64644;48.914;2.254;2023-04-03T07:22:29;9.90;58.35
75961;SHT30;64644;48.914;2.254;2023-04-03T07:24:54;9.96;58.34
75961;SHT30;64644;48.914;2.254;2023-04-03T07:27:20;9.96;58.11
75961;SHT30;64644;48.914;2.254;2023-04-03T07:29:45;9.99;58.37
75961;SHT30;64644;48.914;2.254;2023-04-03T07:32:13;10.03;58.08
75961;SHT30;64644;48.914;2.254;2023-04-03T07:34:38;10.05;58.19
75961;SHT30;64644;48.914;2.254;2023-04-03T07:37:03;10.09;58.27
75961;SHT30;64644;48.914;2.254;2023-04-03T07:39:30;10.10;57.64
75961;SHT30;64644;48.914;2.254;2023-04-03T07:41:55;10.14;58.21
75961;SHT30;64644;48.914;2.254;2023-04-03T07:44:21;10.14;57.47
75961;SHT30;64644;48.914;2.254;2023-04-03T07:46:47;10.13;57.80
75961;SHT30;64644;48.914;2.254;2023-04-03T07:49:13;10.14;57.75
75961;SHT30;64644;48.914;2.254;2023-04-03T07:51:39;10.17;57.54
75961;SHT30;64644;48.914;2.254;2023-04-03T07:54:04;10.18;57.62
75961;SHT30;64644;48.914;2.254;2023-04-03T07:56:30;10.23;57.61
75961;SHT30;64644;48.914;2.254;2023-04-03T07:58:55;10.30;57.70
75961;SHT30;64644;48.914;2.254;2023-04-03T08:01:21;10.33;57.97
75961;SHT30;64644;48.914;2.254;2023-04-03T08:03:46;10.34;57.39
75961;SHT30;64644;48.914;2.254;2023-04-03T08:06:12;10.37;57.58
75961;SHT30;64644;48.914;2.254;2023-04-03T08:08:40;10.43;57.52
75961;SHT30;64644;48.914;2.254;2023-04-03T08:11:05;10.45;57.08
75961;SHT30;64644;48.914;2.254;2023-04-03T08:13:33;10.54;57.55
75961;SHT30;64644;48.914;2.254;2023-04-03T08:16:11;10.61;57.39
75961;SHT30;64644;48.914;2.254;2023-04-03T08:18:37;10.68;57.25
75961;SHT30;64644;48.914;2.254;2023-04-03T08:21:09;10.75;56.96
75961;SHT30;64644;48.914;2.254;2023-04-03T08:23:35;10.75;57.15
75961;SHT30;64644;48.914;2.254;2023-04-03T08:26:09;10.79;56.76
75961;SHT30;64644;48.914;2.254;2023-04-03T08:28:34;10.83;57.34
75961;SHT30;64644;48.914;2.254;2023-04-03T08:31:05;10.88;56.80
75961;SHT30;64644;48.914;2.254;2023-04-03T08:33:31;10.91;56.67
75961;SHT30;64644;48.914;2.254;2023-04-03T08:35:56;10.93;56.60
75961;SHT30;64644;48.914;2.254;2023-04-03T08:38:22;10.96;56.31
75961;SHT30;64644;48.914;2.254;2023-04-03T08:40:47;10.96;56.48
75961;SHT30;64644;48.914;2.254;2023-04-03T08:43:30;11.00;56.32
75961;SHT30;64644;48.914;2.254;2023-04-03T08:46:00;11.03;56.02
75961;SHT30;64644;48.914;2.254;2023-04-03T08:48:35;11.02;56.07
75961;SHT30;64644;48.914;2.254;2023-04-03T08:51:08;10.99;55.43
75961;SHT30;64644;48.914;2.254;2023-04-03T08:53:42;10.95;56.14
75961;SHT30;64644;48.914;2.254;2023-04-03T08:56:10;10.93;55.79
75961;SHT30;64644;48.914;2.254;2023-04-03T08:58:56;10.92;55.83
75961;SHT30;64644;48.914;2.254;2023-04-03T09:01:27;10.95;55.10
75961;SHT30;64644;48.914;2.254;2023-04-03T09:03:55;10.93;54.72
75961;SHT30;64644;48.914;2.254;2023-04-03T09:06:26;10.92;55.37
75961;SHT30;64644;48.914;2.254;2023-04-03T09:09:21;10.96;55.31
75961;SHT30;64644;48.914;2.254;2023-04-03T09:16:54;11.09;54.98
75961;SHT30;64644;48.914;2.254;2023-04-03T09:19:38;11.12;55.18
75961;SHT30;64644;48.914;2.254;2023-04-03T09:22:21;11.23;55.36
75961;SHT30;64644;48.914;2.254;2023-04-03T09:25:02;11.27;55.07
75961;SHT30;64644;48.914;2.254;2023-04-03T09:27:31;11.27;55.13
75961;SHT30;64644;48.914;2.254;2023-04-03T09:29:57;11.26;54.03
75961;SHT30;64644;48.914;2.254;2023-04-03T09:32:31;11.19;54.98
75961;SHT30;64644;48.914;2.254;2023-04-03T09:35:04;11.19;54.37
75961;SHT30;64644;48.914;2.254;2023-04-03T09:37:39;11.23;54.36
75961;SHT30;64644;48.914;2.254;2023-04-03T09:40:12;11.24;54.90
75961;SHT30;64644;48.914;2.254;2023-04-03T09:42:53;11.20;54.06
75961;SHT30;64644;48.914;2.254;2023-04-03T09:45:27;11.28;54.30
75961;SHT30;64644;48.914;2.254;2023-04-03T09:48:20;11.44;54.34
75961;SHT30;64644;48.914;2.254;2023-04-03T09:51:00;11.68;53.50
75961;SHT30;64644;48.914;2.254;2023-04-03T09:53:34;11.95;53.14
75961;SHT30;64644;48.914;2.254;2023-04-03T09:56:02;12.20;52.98
75961;SHT30;64644;48.914;2.254;2023-04-03T09:58:31;12.41;53.30
75961;SHT30;64644;48.914;2.254;2023-04-03T10:01:00;12.51;52.93
75961;SHT30;64644;48.914;2.254;2023-04-03T10:03:36;12.61;52.68
75961;SHT30;64644;48.914;2.254;2023-04-03T10:06:03;12.79;52.61
75961;SHT30;64644;48.914;2.254;2023-04-03T10:08:34;12.96;52.16
75961;SHT30;64644;48.914;2.254;2023-04-03T10:11:13;13.11;51.99
75961;SHT30;64644;48.914;2.254;2023-04-03T10:13:59;13.23;51.12
75961;SHT30;64644;48.914;2.254;2023-04-03T10:16:34;13.33;51.49
75961;SHT30;64644;48.914;2.254;2023-04-03T10:19:19;13.43;51.38
75961;SHT30;64644;48.914;2.254;2023-04-03T10:21:57;13.50;50.66
75961;SHT30;64644;48.914;2.254;2023-04-03T10:24:47;13.59;50.95
75961;SHT30;64644;48.914;2.254;2023-04-03T10:27:20;13.71;50.65
75961;SHT30;64644;48.914;2.254;2023-04-03T10:40:50;13.90;49.04
75961;SHT30;64644;48.914;2.254;2023-04-03T10:43:39;13.96;48.11
75961;SHT30;64644;48.914;2.254;2023-04-03T10:46:28;14.07;49.10
75961;SHT30;64644;48.914;2.254;2023-04-03T10:49:05;14.18;48.75
75961;SHT30;64644;48.914;2.254;2023-04-03T10:51:48;14.27;48.90
75961;SHT30;64644;48.914;2.254;2023-04-03T10:54:26;14.34;48.63
75961;SHT30;64644;48.914;2.254;2023-04-03T10:56:57;14.35;48.48
75961;SHT30;64644;48.914;2.254;2023-04-03T10:59:36;14.38;47.80
75961;SHT30;64644;48.914;2.254;2023-04-03T11:05:13;14.46;47.76
75961;SHT30;64644;48.914;2.254;2023-04-03T11:07:46;14.51;47.58
75961;SHT30;64644;48.914;2.254;2023-04-03T11:12:50;14.61;45.80
75961;SHT30;64644;48.914;2.254;2023-04-03T11:15:29;14.67;45.93
75961;SHT30;64644;48.914;2.254;2023-04-03T11:18:11;14.75;46.50
75961;SHT30;64644;48.914;2.254;2023-04-03T11:20:42;14.78;45.80
75961;SHT30;64644;48.914;2.254;2023-04-03T11:23:21;14.86;45.74
75961;SHT30;64644;48.914;2.254;2023-04-03T11:25:50;14.97;46.03
75961;SHT30;64644;48.914;2.254;2023-04-03T11:28:17;15.06;45.21
75961;SHT30;64644;48.914;2.254;2023-04-03T11:33:36;15.21;45.28
75961;SHT30;64644;48.914;2.254;2023-04-03T11:36:19;15.26;44.30
75961;SHT30;64644;48.914;2.254;2023-04-03T11:38:51;15.34;44.39
75961;SHT30;64644;48.914;2.254;2023-04-03T11:41:26;15.44;44.04
75961;SHT30;64644;48.914;2.254;2023-04-03T11:44:05;15.45;44.73
75961;SHT30;64644;48.914;2.254;2023-04-03T11:46:57;15.54;44.76
75961;SHT30;64644;48.914;2.254;2023-04-03T11:57:46;15.73;44.09
75961;SHT30;64644;48.914;2.254;2023-04-03T12:05:51;15.82;43.39
75961;SHT30;64644;48.914;2.254;2023-04-03T12:19:02;16.28;42.56
75961;SHT30;64644;48.914;2.254;2023-04-03T12:29:46;16.55;41.96
75961;SHT30;64644;48.914;2.254;2023-04-03T12:48:22;16.86;40.67
75961;SHT30;64644;48.914;2.254;2023-04-03T12:50:49;16.89;40.49
75961;SHT30;64644;48.914;2.254;2023-04-03T12:53:24;17.00;40.72
75961;SHT30;64644;48.914;2.254;2023-04-03T12:56:30;17.11;40.51
75961;SHT30;64644;48.914;2.254;2023-04-03T12:59:16;17.21;41.23
75961;SHT30;64644;48.914;2.254;2023-04-03T13:01:43;17.26;40.16
75961;SHT30;64644;48.914;2.254;2023-04-03T13:04:11;17.20;40.79
75961;SHT30;64644;48.914;2.254;2023-04-03T13:06:42;17.20;41.40
75961;SHT30;64644;48.914;2.254;2023-04-03T13:11:49;17.21;40.42
75961;SHT30;64644;48.914;2.254;2023-04-03T13:14:17;17.24;40.61
75961;SHT30;64644;48.914;2.254;2023-04-03T13:16:55;17.23;39.30
75961;SHT30;64644;48.914;2.254;2023-04-03T13:19:23;17.24;38.75
75961;SHT30;64644;48.914;2.254;2023-04-03T13:21:51;17.26;40.31
75961;SHT30;64644;48.914;2.254;2023-04-03T13:24:20;17.23;39.80
75961;SHT30;64644;48.914;2.254;2023-04-03T13:26:45;17.26;39.77
75961;SHT30;64644;48.914;2.254;2023-04-03T13:29:29;17.31;39.92
75961;SHT30;64644;48.914;2.254;2023-04-03T13:31:56;17.37;39.71
75961;SHT30;64644;48.914;2.254;2023-04-03T13:34:23;17.35;39.75
75961;SHT30;64644;48.914;2.254;2023-04-03T13:41:49;17.16;39.97
75961;SHT30;64644;48.914;2.254;2023-04-03T13:46:52;17.11;40.27
75961;SHT30;64644;48.914;2.254;2023-04-03T13:51:53;17.10;40.74
75961;SHT30;64644;48.914;2.254;2023-04-03T13:54:22;17.09;41.39
75961;SHT30;64644;48.914;2.254;2023-04-03T13:56:54;17.03;40.76
75961;SHT30;64644;48.914;2.254;2023-04-03T13:59:25;17.00;39.83
75961;SHT30;64644;48.914;2.254;2023-04-03T14:04:26;16.89;40.54
75961;SHT30;64644;48.914;2.254;2023-04-03T14:06:53;16.77;40.31
75961;SHT30;64644;48.914;2.254;2023-04-03T14:09:20;16.69;40.68
75961;SHT30;64644;48.914;2.254;2023-04-03T14:11:48;16.65;40.64
75961;SHT30;64644;48.914;2.254;2023-04-03T14:14:23;16.59;40.14
75961;SHT30;64644;48.914;2.254;2023-04-03T14:16:54;16.52;40.33
75961;SHT30;64644;48.914;2.254;2023-04-03T14:19:23;16.48;40.90
75961;SHT30;64644;48.914;2.254;2023-04-03T14:21:49;16.47;40.43
75961;SHT30;64644;48.914;2.254;2023-04-03T14:24:16;16.49;40.61
75961;SHT30;64644;48.914;2.254;2023-04-03T14:26:43;16.52;40.57
75961;SHT30;64644;48.914;2.254;2023-04-03T14:29:10;16.48;40.29
75961;SHT30;64644;48.914;2.254;2023-04-03T14:31:36;16.44;40.29
75961;SHT30;64644;48.914;2.254;2023-04-03T14:34:01;16.37;41.14
75961;SHT30;64644;48.914;2.254;2023-04-03T14:36:28;16.32;40.58
75961;SHT30;64644;48.914;2.254;2023-04-03T14:38:55;16.31;41.04
75961;SHT30;64644;48.914;2.254;2023-04-03T14:41:23;16.25;41.08
75961;SHT30;64644;48.914;2.254;2023-04-03T14:43:49;16.18;40.40
75961;SHT30;64644;48.914;2.254;2023-04-03T14:46:35;16.18;40.69
75961;SHT30;64644;48.914;2.254;2023-04-03T14:49:03;16.20;40.69
75961;SHT30;64644;48.914;2.254;2023-04-03T14:51:33;16.18;40.60
75961;SHT30;64644;48.914;2.254;2023-04-03T14:53:59;16.18;41.11
75961;SHT30;64644;48.914;2.254;2023-04-03T14:56:27;16.16;41.51
75961;SHT30;64644;48.914;2.254;2023-04-03T14:58:58;16.75;40.89
75961;SHT30;64644;48.914;2.254;2023-04-03T15:01:25;17.27;40.33
75961;SHT30;64644;48.914;2.254;2023-04-03T15:03:50;17.24;40.49
75961;SHT30;64644;48.914;2.254;2023-04-03T15:06:16;17.09;40.03
75961;SHT30;64644;48.914;2.254;2023-04-03T15:08:43;16.90;40.27
75961;SHT30;64644;48.914;2.254;2023-04-03T15:11:10;16.72;39.92
75961;SHT30;64644;48.914;2.254;2023-04-03T15:13:36;16.58;40.91
75961;SHT30;64644;48.914;2.254;2023-04-03T15:16:02;16.45;41.66
75961;SHT30;64644;48.914;2.254;2023-04-03T15:18:32;16.30;40.67
75961;SHT30;64644;48.914;2.254;2023-04-03T15:20:59;16.22;41.09
75961;SHT30;64644;48.914;2.254;2023-04-03T15:23:25;16.13;41.54
75961;SHT30;64644;48.914;2.254;2023-04-03T15:25:52;16.02;41.51
75961;SHT30;64644;48.914;2.254;2023-04-03T15:28:33;15.96;42.16
75961;SHT30;64644;48.914;2.254;2023-04-03T15:31:00;15.89;41.95
75961;SHT30;64644;48.914;2.254;2023-04-03T15:33:25;15.82;42.54
75961;SHT30;64644;48.914;2.254;2023-04-03T15:35:51;15.72;41.66
75961;SHT30;64644;48.914;2.254;2023-04-03T15:38:17;15.63;41.71
75961;SHT30;64644;48.914;2.254;2023-04-03T15:40:42;15.59;42.14
75961;SHT30;64644;48.914;2.254;2023-04-03T15:43:09;15.55;41.81
75961;SHT30;64644;48.914;2.254;2023-04-03T15:45:36;15.55;42.35
75961;SHT30;64644;48.914;2.254;2023-04-03T15:48:03;15.55;42.66
75961;SHT30;64644;48.914;2.254;2023-04-03T15:50:28;15.55;42.46
75961;SHT30;64644;48.914;2.254;2023-04-03T15:52:54;15.49;41.98
75961;SHT30;64644;48.914;2.254;2023-04-03T15:55:30;15.41;42.74
75961;SHT30;64644;48.914;2.254;2023-04-03T15:57:56;15.34;42.71
75961;SHT30;64644;48.914;2.254;2023-04-03T16:00:23;15.27;42.42
75961;SHT30;64644;48.914;2.254;2023-04-03T16:02:51;15.23;42.44
75961;SHT30;64644;48.914;2.254;2023-04-03T16:05:18;15.21;42.72
75961;SHT30;64644;48.914;2.254;2023-04-03T16:07:45;15.21;42.91
75961;SHT30;64644;48.914;2.254;2023-04-03T16:10:12;15.21;43.00
75961;SHT30;64644;48.914;2.254;2023-04-03T16:12:38;15.16;42.90
75961;SHT30;64644;48.914;2.254;2023-04-03T16:15:04;15.13;43.09
75961;SHT30;64644;48.914;2.254;2023-04-03T16:17:31;15.11;42.57
75961;SHT30;64644;48.914;2.254;2023-04-03T16:19:57;15.06;42.83
75961;SHT30;64644;48.914;2.254;2023-04-03T16:22:23;15.02;43.17
75961;SHT30;64644;48.914;2.254;2023-04-03T16:24:50;15.03;43.24
75961;SHT30;64644;48.914;2.254;2023-04-03T16:27:16;15.03;43.40
75961;SHT30;64644;48.914;2.254;2023-04-03T16:29:41;14.95;43.14
75961;SHT30;64644;48.914;2.254;2023-04-03T16:32:07;14.95;43.39
75961;SHT30;64644;48.914;2.254;2023-04-03T16:34:32;14.92;43.39
75961;SHT30;64644;48.914;2.254;2023-04-03T16:36:58;14.87;43.28
75961;SHT30;64644;48.914;2.254;2023-04-03T16:39:23;14.83;43.67
75961;SHT30;64644;48.914;2.254;2023-04-03T16:41:49;14.83;43.95
75961;SHT30;64644;48.914;2.254;2023-04-03T16:44:14;14.78;43.64
75961;SHT30;64644;48.914;2.254;2023-04-03T16:46:39;14.79;43.74
75961;SHT30;64644;48.914;2.254;2023-04-03T16:49:05;14.73;44.10
75961;SHT30;64644;48.914;2.254;2023-04-03T16:51:30;14.69;44.22
75961;SHT30;64644;48.914;2.254;2023-04-03T16:53:57;14.68;44.09
75961;SHT30;64644;48.914;2.254;2023-04-03T16:56:22;14.60;43.68
75961;SHT30;64644;48.914;2.254;2023-04-03T16:58:48;14.55;43.85
75961;SHT30;64644;48.914;2.254;2023-04-03T17:01:16;14.51;44.10
75961;SHT30;64644;48.914;2.254;2023-04-03T17:03:42;14.49;43.69
75961;SHT30;64644;48.914;2.254;2023-04-03T17:06:08;14.46;43.95
75961;SHT30;64644;48.914;2.254;2023-04-03T17:08:39;14.42;43.95
75961;SHT30;64644;48.914;2.254;2023-04-03T17:11:05;14.42;44.02
75961;SHT30;64644;48.914;2.254;2023-04-03T17:13:30;14.35;44.21
75961;SHT30;64644;48.914;2.254;2023-04-03T17:15:57;14.37;44.11
75961;SHT30;64644;48.914;2.254;2023-04-03T17:18:23;14.35;44.27